sensor_id;sensor_type;location;lat;lon;timestamp;P1;durP1;ratioP1;P2;durP2;ratioP2
35442;SDS011;21561;55.654;37.592;2023-07-16T00:00:15;15.30;;;6.45;;
35442;SDS011;21561;55.654;37.592;2023-07-16T00:02:44;17.50;;;6.60;;
35442;SDS011;21561;55.654;37.592;2023-07-16T00:05:11;14.98;;;6.55;;
35442;SDS011;21561;55.654;37.592;2023-07-16T00:07:39;16.00;;;7.03;;
35442;SDS011;21561;55.654;37.592;2023-07-16T00:10:06;16.13;;;6.80;;
35442;SDS011;21561;55.654;37.592;2023-07-16T00:12:34;17.10;;;6.68;;
35442;SDS011;21561;55.654;37.592;2023-07-16T00:15:00;16.75;;;7.40;;
35442;SDS011;21561;55.654;37.592;2023-07-16T00:17:31;18.48;;;7.05;;
35442;SDS011;21561;55.654;37.592;2023-07-16T00:20:00;16.08;;;7.40;;
35442;SDS011;21561;55.654;37.592;2023-07-16T00:22:32;14.65;;;6.45;;
35442;SDS011;21561;55.654;37.592;2023-07-16T00:25:00;15.98;;;7.53;;
35442;SDS011;21561;55.654;37.592;2023-07-16T00:27:29;16.50;;;6.25;;
35442;SDS011;21561;55.654;37.592;2023-07-16T00:29:57;17.35;;;6.95;;
35442;SDS011;21561;55.654;37.592;2023-07-16T00:32:24;16.15;;;7.18;;
35442;SDS011;21561;55.654;37.592;2023-07-16T00:34:51;15.73;;;6.80;;
35442;SDS011;21561;55.654;37.592;2023-07-16T00:37:17;15.95;;;6.68;;
35442;SDS011;21561;55.654;37.592;2023-07-16T00:39:44;15.38;;;6.72;;
35442;SDS011;21561;55.654;37.592;2023-07-16T00:42:11;14.90;;;6.18;;
35442;SDS011;21561;55.654;37.592;2023-07-16T00:44:38;14.77;;;6.80;;
35442;SDS011;21561;55.654;37.592;2023-07-16T00:47:05;15.05;;;6.70;;
35442;SDS011;21561;55.654;37.592;2023-07-16T00:49:32;14.65;;;6.40;;
35442;SDS011;21561;55.654;37.592;2023-07-16T00:51:59;15.55;;;6.78;;
35442;SDS011;21561;55.654;37.592;2023-07-16T00:54:28;18.35;;;7.00;;
35442;SDS011;21561;55.654;37.592;2023-07-16T00:56:58;16.33;;;6.27;;
35442;SDS011;21561;55.654;37.592;2023-07-16T00:59:25;15.93;;;6.45;;
35442;SDS011;21561;55.654;37.592;2023-07-16T01:01:52;15.77;;;6.05;;
35442;SDS011;21561;55.654;37.592;2023-07-16T01:04:19;14.45;;;6.05;;
35442;SDS011;21561;55.654;37.592;2023-07-16T01:06:47;17.17;;;6.28;;
35442;SDS011;21561;55.654;37.592;2023-07-16T01:09:19;15.40;;;6.45;;
35442;SDS011;21561;55.654;37.592;2023-07-16T01:11:47;14.88;;;6.13;;
35442;SDS011;21561;55.654;37.592;2023-07-16T01:14:18;13.68;;;5.88;;
35442;SDS011;21561;55.654;37.592;2023-07-16T01:16:45;15.18;;;6.00;;
35442;SDS011;21561;55.654;37.592;2023-07-16T01:19:12;14.40;;;6.35;;
35442;SDS011;21561;55.654;37.592;2023-07-16T01:21:44;13.80;;;5.68;;
35442;SDS011;21561;55.654;37.592;2023-07-16T01:27:47;14.75;;;6.10;;
35442;SDS011;21561;55.654;37.592;2023-07-16T01:30:25;14.10;;;6.30;;
35442;SDS011;21561;55.654;37.592;2023-07-16T01:32:55;16.80;;;6.28;;
35442;SDS011;21561;55.654;37.592;2023-07-16T01:35:23;15.82;;;5.57;;
35442;SDS011;21561;55.654;37.592;2023-07-16T01:37:50;14.98;;;6.60;;
35442;SDS011;21561;55.654;37.592;2023-07-16T01:40:17;14.50;;;5.85;;
35442;SDS011;21561;55.654;37.592;2023-07-16T01:42:44;14.50;;;6.00;;
35442;SDS011;21561;55.654;37.592;2023-07-16T01:45:11;16.55;;;6.00;;
35442;SDS011;21561;55.654;37.592;2023-07-16T01:50:38;15.38;;;5.55;;
35442;SDS011;21561;55.654;37.592;2023-07-16T01:53:05;15.45;;;6.28;;
35442;SDS011;21561;55.654;37.592;2023-07-16T01:55:32;12.50;;;5.38;;
35442;SDS011;21561;55.654;37.592;2023-07-16T01:57:59;17.58;;;6.07;;
35442;SDS011;21561;55.654;37.592;2023-07-16T02:00:26;16.00;;;5.60;;
35442;SDS011;21561;55.654;37.592;2023-07-16T02:02:53;14.43;;;6.00;;
35442;SDS011;21561;55.654;37.592;2023-07-16T02:05:20;16.17;;;6.10;;
35442;SDS011;21561;55.654;37.592;2023-07-16T02:07:47;14.00;;;6.55;;
35442;SDS011;21561;55.654;37.592;2023-07-16T02:10:14;19.55;;;6.00;;
35442;SDS011;21561;55.654;37.592;2023-07-16T02:12:41;16.25;;;5.95;;
35442;SDS011;21561;55.654;37.592;2023-07-16T02:15:08;14.95;;;6.07;;
35442;SDS011;21561;55.654;37.592;2023-07-16T02:17:36;15.00;;;6.25;;
35442;SDS011;21561;55.654;37.592;2023-07-16T02:20:04;15.48;;;6.05;;
35442;SDS011;21561;55.654;37.592;2023-07-16T02:22:33;16.42;;;6.50;;
35442;SDS011;21561;55.654;37.592;2023-07-16T02:25:02;16.02;;;6.57;;
35442;SDS011;21561;55.654;37.592;2023-07-16T02:27:29;17.02;;;6.72;;
35442;SDS011;21561;55.654;37.592;2023-07-16T02:29:56;15.52;;;6.70;;
35442;SDS011;21561;55.654;37.592;2023-07-16T02:32:23;15.90;;;6.38;;
35442;SDS011;21561;55.654;37.592;2023-07-16T02:34:50;16.08;;;6.15;;
35442;SDS011;21561;55.654;37.592;2023-07-16T02:37:17;15.60;;;6.80;;
35442;SDS011;21561;55.654;37.592;2023-07-16T02:39:45;18.50;;;7.63;;
35442;SDS011;21561;55.654;37.592;2023-07-16T02:42:13;17.67;;;6.43;;
35442;SDS011;21561;55.654;37.592;2023-07-16T02:44:40;17.90;;;6.93;;
35442;SDS011;21561;55.654;37.592;2023-07-16T02:47:11;14.32;;;6.68;;
35442;SDS011;21561;55.654;37.592;2023-07-16T02:49:38;17.17;;;6.50;;
35442;SDS011;21561;55.654;37.592;2023-07-16T02:52:06;14.93;;;6.50;;
35442;SDS011;21561;55.654;37.592;2023-07-16T02:54:35;15.15;;;6.75;;
35442;SDS011;21561;55.654;37.592;2023-07-16T02:57:02;17.08;;;6.68;;
35442;SDS011;21561;55.654;37.592;2023-07-16T02:59:29;18.42;;;6.65;;
35442;SDS011;21561;55.654;37.592;2023-07-16T03:01:58;14.70;;;6.00;;
35442;SDS011;21561;55.654;37.592;2023-07-16T03:04:26;16.75;;;7.18;;
35442;SDS011;21561;55.654;37.592;2023-07-16T03:06:53;16.40;;;6.50;;
35442;SDS011;21561;55.654;37.592;2023-07-16T03:09:20;15.13;;;6.47;;
35442;SDS011;21561;55.654;37.592;2023-07-16T03:11:46;14.63;;;6.65;;
35442;SDS011;21561;55.654;37.592;2023-07-16T03:14:13;14.45;;;6.07;;
35442;SDS011;21561;55.654;37.592;2023-07-16T03:16:40;14.95;;;6.43;;
35442;SDS011;21561;55.654;37.592;2023-07-16T03:19:07;14.68;;;6.50;;
35442;SDS011;21561;55.654;37.592;2023-07-16T03:21:34;14.85;;;5.85;;
35442;SDS011;21561;55.654;37.592;2023-07-16T03:24:01;14.18;;;6.45;;
35442;SDS011;21561;55.654;37.592;2023-07-16T03:26:28;14.20;;;6.53;;
35442;SDS011;21561;55.654;37.592;2023-07-16T03:28:55;16.55;;;7.45;;
35442;SDS011;21561;55.654;37.592;2023-07-16T03:31:22;17.63;;;6.00;;
35442;SDS011;21561;55.654;37.592;2023-07-16T03:33:49;15.27;;;6.13;;
35442;SDS011;21561;55.654;37.592;2023-07-16T03:36:16;14.73;;;6.40;;
35442;SDS011;21561;55.654;37.592;2023-07-16T03:38:44;16.75;;;6.32;;
35442;SDS011;21561;55.654;37.592;2023-07-16T03:41:11;15.27;;;6.68;;
35442;SDS011;21561;55.654;37.592;2023-07-16T03:43:38;14.32;;;6.22;;
35442;SDS011;21561;55.654;37.592;2023-07-16T03:46:05;14.63;;;6.18;;
35442;SDS011;21561;55.654;37.592;2023-07-16T03:48:35;14.85;;;6.88;;
35442;SDS011;21561;55.654;37.592;2023-07-16T03:51:02;15.38;;;6.25;;
35442;SDS011;21561;55.654;37.592;2023-07-16T03:53:29;16.33;;;6.57;;
35442;SDS011;21561;55.654;37.592;2023-07-16T03:55:56;14.52;;;6.40;;
35442;SDS011;21561;55.654;37.592;2023-07-16T03:58:23;15.95;;;6.80;;
35442;SDS011;21561;55.654;37.592;2023-07-16T04:00:50;13.70;;;5.88;;
35442;SDS011;21561;55.654;37.592;2023-07-16T04:03:17;15.52;;;6.43;;
35442;SDS011;21561;55.654;37.592;2023-07-16T04:05:44;15.43;;;6.15;;
35442;SDS011;21561;55.654;37.592;2023-07-16T04:08:11;16.00;;;7.13;;
35442;SDS011;21561;55.654;37.592;2023-07-16T04:10:38;16.60;;;6.70;;
35442;SDS011;21561;55.654;37.592;2023-07-16T04:13:05;16.05;;;6.30;;
35442;SDS011;21561;55.654;37.592;2023-07-16T04:15:32;14.05;;;6.22;;
35442;SDS011;21561;55.654;37.592;2023-07-16T04:17:59;16.77;;;6.28;;
35442;SDS011;21561;55.654;37.592;2023-07-16T04:20:26;15.85;;;6.47;;
35442;SDS011;21561;55.654;37.592;2023-07-16T04:22:53;14.20;;;6.30;;
35442;SDS011;21561;55.654;37.592;2023-07-16T04:25:20;14.65;;;6.53;;
35442;SDS011;21561;55.654;37.592;2023-07-16T04:27:47;17.00;;;6.47;;
35442;SDS011;21561;55.654;37.592;2023-07-16T04:30:14;13.82;;;6.30;;
35442;SDS011;21561;55.654;37.592;2023-07-16T04:32:41;15.40;;;5.95;;
35442;SDS011;21561;55.654;37.592;2023-07-16T04:35:08;17.65;;;6.85;;
35442;SDS011;21561;55.654;37.592;2023-07-16T04:37:35;12.65;;;5.82;;
35442;SDS011;21561;55.654;37.592;2023-07-16T04:40:02;14.98;;;6.18;;
35442;SDS011;21561;55.654;37.592;2023-07-16T04:42:30;19.00;;;7.03;;
35442;SDS011;21561;55.654;37.592;2023-07-16T04:44:57;17.98;;;6.50;;
35442;SDS011;21561;55.654;37.592;2023-07-16T04:47:24;16.88;;;6.90;;
35442;SDS011;21561;55.654;37.592;2023-07-16T04:49:51;16.40;;;6.97;;
35442;SDS011;21561;55.654;37.592;2023-07-16T04:52:18;16.05;;;7.03;;
35442;SDS011;21561;55.654;37.592;2023-07-16T04:54:45;13.85;;;6.15;;
35442;SDS011;21561;55.654;37.592;2023-07-16T04:57:12;15.77;;;6.85;;
35442;SDS011;21561;55.654;37.592;2023-07-16T04:59:39;16.27;;;6.85;;
35442;SDS011;21561;55.654;37.592;2023-07-16T05:02:06;17.30;;;7.10;;
35442;SDS011;21561;55.654;37.592;2023-07-16T05:04:34;15.00;;;6.65;;
35442;SDS011;21561;55.654;37.592;2023-07-16T05:07:02;18.13;;;7.22;;
35442;SDS011;21561;55.654;37.592;2023-07-16T05:09:29;14.52;;;6.70;;
35442;SDS011;21561;55.654;37.592;2023-07-16T05:11:56;15.15;;;7.20;;
35442;SDS011;21561;55.654;37.592;2023-07-16T05:14:26;17.60;;;7.47;;
35442;SDS011;21561;55.654;37.592;2023-07-16T05:16:54;16.47;;;7.30;;
35442;SDS011;21561;55.654;37.592;2023-07-16T05:19:22;14.25;;;7.13;;
35442;SDS011;21561;55.654;37.592;2023-07-16T05:21:49;18.88;;;7.50;;
35442;SDS011;21561;55.654;37.592;2023-07-16T05:24:16;16.95;;;7.85;;
35442;SDS011;21561;55.654;37.592;2023-07-16T05:26:43;15.73;;;7.22;;
35442;SDS011;21561;55.654;37.592;2023-07-16T05:29:10;17.65;;;7.53;;
35442;SDS011;21561;55.654;37.592;2023-07-16T05:31:37;16.85;;;7.65;;
35442;SDS011;21561;55.654;37.592;2023-07-16T05:34:04;18.15;;;8.02;;
35442;SDS011;21561;55.654;37.592;2023-07-16T05:36:31;14.50;;;6.60;;
35442;SDS011;21561;55.654;37.592;2023-07-16T05:38:58;15.52;;;7.15;;
35442;SDS011;21561;55.654;37.592;2023-07-16T05:41:24;18.02;;;7.03;;
35442;SDS011;21561;55.654;37.592;2023-07-16T05:43:51;14.15;;;6.97;;
35442;SDS011;21561;55.654;37.592;2023-07-16T05:46:18;16.02;;;7.25;;
35442;SDS011;21561;55.654;37.592;2023-07-16T05:48:46;16.90;;;7.50;;
35442;SDS011;21561;55.654;37.592;2023-07-16T05:51:13;16.77;;;7.22;;
35442;SDS011;21561;55.654;37.592;2023-07-16T05:53:39;16.70;;;7.05;;
35442;SDS011;21561;55.654;37.592;2023-07-16T05:56:06;15.68;;;6.47;;
35442;SDS011;21561;55.654;37.592;2023-07-16T05:58:33;16.13;;;7.18;;
35442;SDS011;21561;55.654;37.592;2023-07-16T06:01:00;19.65;;;7.72;;
35442;SDS011;21561;55.654;37.592;2023-07-16T06:03:27;15.75;;;7.15;;
35442;SDS011;21561;55.654;37.592;2023-07-16T06:05:54;17.02;;;7.90;;
35442;SDS011;21561;55.654;37.592;2023-07-16T06:08:21;17.33;;;7.68;;
35442;SDS011;21561;55.654;37.592;2023-07-16T06:10:48;14.73;;;7.47;;
35442;SDS011;21561;55.654;37.592;2023-07-16T06:13:15;16.55;;;7.47;;
35442;SDS011;21561;55.654;37.592;2023-07-16T06:15:42;19.23;;;7.38;;
35442;SDS011;21561;55.654;37.592;2023-07-16T06:18:09;16.95;;;7.10;;
35442;SDS011;21561;55.654;37.592;2023-07-16T06:20:38;15.77;;;6.45;;
35442;SDS011;21561;55.654;37.592;2023-07-16T06:23:05;16.27;;;7.07;;
35442;SDS011;21561;55.654;37.592;2023-07-16T06:25:32;15.25;;;7.25;;
35442;SDS011;21561;55.654;37.592;2023-07-16T06:27:59;16.42;;;6.78;;
35442;SDS011;21561;55.654;37.592;2023-07-16T06:30:26;14.73;;;6.53;;
35442;SDS011;21561;55.654;37.592;2023-07-16T06:32:53;14.88;;;6.78;;
35442;SDS011;21561;55.654;37.592;2023-07-16T06:35:20;15.77;;;7.07;;
35442;SDS011;21561;55.654;37.592;2023-07-16T06:37:47;17.33;;;7.43;;
35442;SDS011;21561;55.654;37.592;2023-07-16T06:40:14;15.43;;;6.97;;
35442;SDS011;21561;55.654;37.592;2023-07-16T06:42:41;17.75;;;6.72;;
35442;SDS011;21561;55.654;37.592;2023-07-16T06:45:08;14.02;;;6.30;;
35442;SDS011;21561;55.654;37.592;2023-07-16T06:47:35;16.55;;;7.03;;
35442;SDS011;21561;55.654;37.592;2023-07-16T06:50:02;15.50;;;7.00;;
35442;SDS011;21561;55.654;37.592;2023-07-16T06:52:30;15.70;;;6.30;;
35442;SDS011;21561;55.654;37.592;2023-07-16T06:54:57;13.95;;;6.18;;
35442;SDS011;21561;55.654;37.592;2023-07-16T06:57:24;17.42;;;6.50;;
35442;SDS011;21561;55.654;37.592;2023-07-16T06:59:51;15.45;;;6.30;;
35442;SDS011;21561;55.654;37.592;2023-07-16T07:02:19;15.52;;;6.90;;
35442;SDS011;21561;55.654;37.592;2023-07-16T07:04:46;15.32;;;6.20;;
35442;SDS011;21561;55.654;37.592;2023-07-16T07:07:13;15.93;;;6.10;;
35442;SDS011;21561;55.654;37.592;2023-07-16T07:09:40;15.23;;;6.30;;
35442;SDS011;21561;55.654;37.592;2023-07-16T07:12:07;15.25;;;6.13;;
35442;SDS011;21561;55.654;37.592;2023-07-16T07:14:34;18.00;;;6.28;;
35442;SDS011;21561;55.654;37.592;2023-07-16T07:17:01;17.50;;;6.35;;
35442;SDS011;21561;55.654;37.592;2023-07-16T07:19:28;14.35;;;6.15;;
35442;SDS011;21561;55.654;37.592;2023-07-16T07:21:55;15.68;;;5.28;;
35442;SDS011;21561;55.654;37.592;2023-07-16T07:24:22;15.95;;;5.68;;
35442;SDS011;21561;55.654;37.592;2023-07-16T07:26:48;14.75;;;5.30;;
35442;SDS011;21561;55.654;37.592;2023-07-16T07:29:15;13.38;;;5.22;;
35442;SDS011;21561;55.654;37.592;2023-07-16T07:31:42;11.70;;;5.00;;
35442;SDS011;21561;55.654;37.592;2023-07-16T07:34:09;13.63;;;5.50;;
35442;SDS011;21561;55.654;37.592;2023-07-16T07:36:36;12.90;;;5.30;;
35442;SDS011;21561;55.654;37.592;2023-07-16T07:39:03;13.35;;;5.53;;
35442;SDS011;21561;55.654;37.592;2023-07-16T07:41:30;19.77;;;6.78;;
35442;SDS011;21561;55.654;37.592;2023-07-16T07:43:57;14.75;;;5.70;;
35442;SDS011;21561;55.654;37.592;2023-07-16T07:46:24;13.82;;;5.82;;
35442;SDS011;21561;55.654;37.592;2023-07-16T07:48:51;14.32;;;6.07;;
35442;SDS011;21561;55.654;37.592;2023-07-16T07:51:18;14.30;;;6.00;;
35442;SDS011;21561;55.654;37.592;2023-07-16T07:53:45;15.60;;;5.57;;
35442;SDS011;21561;55.654;37.592;2023-07-16T07:56:12;14.38;;;5.22;;
35442;SDS011;21561;55.654;37.592;2023-07-16T07:58:39;15.88;;;5.47;;
35442;SDS011;21561;55.654;37.592;2023-07-16T08:01:07;16.63;;;5.72;;
35442;SDS011;21561;55.654;37.592;2023-07-16T08:03:34;15.50;;;5.30;;
35442;SDS011;21561;55.654;37.592;2023-07-16T08:06:02;16.00;;;5.38;;
35442;SDS011;21561;55.654;37.592;2023-07-16T08:08:29;13.75;;;4.68;;
35442;SDS011;21561;55.654;37.592;2023-07-16T08:10:56;12.55;;;4.47;;
35442;SDS011;21561;55.654;37.592;2023-07-16T08:13:23;12.80;;;5.60;;
35442;SDS011;21561;55.654;37.592;2023-07-16T08:15:50;14.25;;;5.22;;
35442;SDS011;21561;55.654;37.592;2023-07-16T08:18:17;13.57;;;4.90;;
35442;SDS011;21561;55.654;37.592;2023-07-16T08:20:44;15.07;;;5.30;;
35442;SDS011;21561;55.654;37.592;2023-07-16T08:23:13;13.32;;;4.95;;
35442;SDS011;21561;55.654;37.592;2023-07-16T08:25:40;11.95;;;4.68;;
35442;SDS011;21561;55.654;37.592;2023-07-16T08:28:07;15.52;;;4.80;;
35442;SDS011;21561;55.654;37.592;2023-07-16T08:30:34;12.50;;;4.70;;
35442;SDS011;21561;55.654;37.592;2023-07-16T08:33:01;11.07;;;4.57;;
35442;SDS011;21561;55.654;37.592;2023-07-16T08:35:29;11.68;;;4.35;;
35442;SDS011;21561;55.654;37.592;2023-07-16T08:37:56;13.68;;;4.40;;
35442;SDS011;21561;55.654;37.592;2023-07-16T08:40:23;10.95;;;4.40;;
35442;SDS011;21561;55.654;37.592;2023-07-16T08:42:50;12.57;;;4.30;;
35442;SDS011;21561;55.654;37.592;2023-07-16T08:45:20;14.10;;;3.97;;
35442;SDS011;21561;55.654;37.592;2023-07-16T08:47:49;11.48;;;4.47;;
35442;SDS011;21561;55.654;37.592;2023-07-16T08:50:17;12.77;;;4.28;;
35442;SDS011;21561;55.654;37.592;2023-07-16T08:52:46;11.52;;;4.57;;
35442;SDS011;21561;55.654;37.592;2023-07-16T08:55:13;11.57;;;4.53;;
35442;SDS011;21561;55.654;37.592;2023-07-16T08:57:40;12.95;;;4.00;;
35442;SDS011;21561;55.654;37.592;2023-07-16T09:00:09;12.20;;;4.40;;
35442;SDS011;21561;55.654;37.592;2023-07-16T09:02:38;11.68;;;4.53;;
35442;SDS011;21561;55.654;37.592;2023-07-16T09:05:05;12.20;;;4.40;;
35442;SDS011;21561;55.654;37.592;2023-07-16T09:07:33;12.85;;;4.53;;
35442;SDS011;21561;55.654;37.592;2023-07-16T09:10:02;11.93;;;4.63;;
35442;SDS011;21561;55.654;37.592;2023-07-16T09:12:31;10.90;;;4.40;;
35442;SDS011;21561;55.654;37.592;2023-07-16T09:14:58;10.80;;;4.10;;
35442;SDS011;21561;55.654;37.592;2023-07-16T09:17:25;10.18;;;4.10;;
35442;SDS011;21561;55.654;37.592;2023-07-16T09:19:52;11.10;;;4.10;;
35442;SDS011;21561;55.654;37.592;2023-07-16T09:22:20;11.57;;;4.20;;
35442;SDS011;21561;55.654;37.592;2023-07-16T09:24:47;12.48;;;4.40;;
35442;SDS011;21561;55.654;37.592;2023-07-16T09:27:14;10.07;;;4.00;;
35442;SDS011;21561;55.654;37.592;2023-07-16T09:29:42;13.10;;;4.60;;
35442;SDS011;21561;55.654;37.592;2023-07-16T09:32:09;10.35;;;4.38;;
35442;SDS011;21561;55.654;37.592;2023-07-16T09:34:36;10.95;;;4.25;;
35442;SDS011;21561;55.654;37.592;2023-07-16T09:37:05;9.40;;;3.70;;
35442;SDS011;21561;55.654;37.592;2023-07-16T09:39:34;12.23;;;3.70;;
35442;SDS011;21561;55.654;37.592;2023-07-16T09:42:04;9.00;;;3.38;;
35442;SDS011;21561;55.654;37.592;2023-07-16T09:44:32;10.90;;;3.60;;
35442;SDS011;21561;55.654;37.592;2023-07-16T09:47:01;11.10;;;3.80;;
35442;SDS011;21561;55.654;37.592;2023-07-16T09:49:28;9.18;;;3.80;;
35442;SDS011;21561;55.654;37.592;2023-07-16T09:51:57;9.48;;;3.33;;
35442;SDS011;21561;55.654;37.592;2023-07-16T09:54:24;6.28;;;2.83;;
35442;SDS011;21561;55.654;37.592;2023-07-16T09:56:56;8.65;;;3.13;;
35442;SDS011;21561;55.654;37.592;2023-07-16T09:59:27;8.00;;;3.15;;
35442;SDS011;21561;55.654;37.592;2023-07-16T10:01:56;9.80;;;3.40;;
35442;SDS011;21561;55.654;37.592;2023-07-16T10:04:24;11.23;;;3.83;;
35442;SDS011;21561;55.654;37.592;2023-07-16T10:06:55;9.70;;;3.40;;
35442;SDS011;21561;55.654;37.592;2023-07-16T10:12:15;11.50;;;3.38;;
35442;SDS011;21561;55.654;37.592;2023-07-16T10:14:51;9.10;;;3.83;;
35442;SDS011;21561;55.654;37.592;2023-07-16T10:17:23;9.00;;;3.28;;
35442;SDS011;21561;55.654;37.592;2023-07-16T10:19:54;8.43;;;3.10;;
35442;SDS011;21561;55.654;37.592;2023-07-16T10:22:38;6.28;;;2.92;;
35442;SDS011;21561;55.654;37.592;2023-07-16T10:25:22;11.70;;;3.30;;
35442;SDS011;21561;55.654;37.592;2023-07-16T10:27:52;6.75;;;3.10;;
35442;SDS011;21561;55.654;37.592;2023-07-16T10:30:20;5.65;;;3.00;;
35442;SDS011;21561;55.654;37.592;2023-07-16T10:32:51;11.93;;;3.35;;
35442;SDS011;21561;55.654;37.592;2023-07-16T10:35:21;7.35;;;3.33;;
35442;SDS011;21561;55.654;37.592;2023-07-16T10:37:48;10.57;;;3.60;;
35442;SDS011;21561;55.654;37.592;2023-07-16T10:40:15;9.73;;;3.42;;
35442;SDS011;21561;55.654;37.592;2023-07-16T10:42:43;11.15;;;3.58;;
35442;SDS011;21561;55.654;37.592;2023-07-16T10:45:11;7.10;;;3.35;;
35442;SDS011;21561;55.654;37.592;2023-07-16T10:47:50;7.20;;;3.20;;
35442;SDS011;21561;55.654;37.592;2023-07-16T10:50:21;7.13;;;3.10;;
35442;SDS011;21561;55.654;37.592;2023-07-16T10:52:50;7.63;;;3.20;;
35442;SDS011;21561;55.654;37.592;2023-07-16T10:55:19;8.77;;;3.22;;
35442;SDS011;21561;55.654;37.592;2023-07-16T10:57:47;9.48;;;3.53;;
35442;SDS011;21561;55.654;37.592;2023-07-16T11:00:16;9.13;;;3.40;;
35442;SDS011;21561;55.654;37.592;2023-07-16T11:02:43;7.95;;;3.40;;
35442;SDS011;21561;55.654;37.592;2023-07-16T11:05:11;9.38;;;3.75;;
35442;SDS011;21561;55.654;37.592;2023-07-16T11:07:47;9.35;;;3.70;;
35442;SDS011;21561;55.654;37.592;2023-07-16T11:10:20;8.20;;;3.75;;
35442;SDS011;21561;55.654;37.592;2023-07-16T11:12:50;8.88;;;3.75;;
35442;SDS011;21561;55.654;37.592;2023-07-16T11:15:29;10.20;;;4.03;;
35442;SDS011;21561;55.654;37.592;2023-07-16T11:18:02;9.15;;;4.30;;
35442;SDS011;21561;55.654;37.592;2023-07-16T11:20:30;10.48;;;3.97;;
35442;SDS011;21561;55.654;37.592;2023-07-16T11:22:58;6.40;;;3.47;;
35442;SDS011;21561;55.654;37.592;2023-07-16T11:25:29;9.25;;;3.60;;
35442;SDS011;21561;55.654;37.592;2023-07-16T11:27:56;7.65;;;3.85;;
35442;SDS011;21561;55.654;37.592;2023-07-16T11:30:23;9.27;;;3.70;;
35442;SDS011;21561;55.654;37.592;2023-07-16T11:32:52;6.75;;;3.80;;
35442;SDS011;21561;55.654;37.592;2023-07-16T11:35:20;9.88;;;3.85;;
35442;SDS011;21561;55.654;37.592;2023-07-16T11:37:47;11.48;;;4.00;;
35442;SDS011;21561;55.654;37.592;2023-07-16T11:40:16;10.00;;;3.78;;
35442;SDS011;21561;55.654;37.592;2023-07-16T11:42:46;9.38;;;3.85;;
35442;SDS011;21561;55.654;37.592;2023-07-16T11:47:44;11.90;;;3.97;;
35442;SDS011;21561;55.654;37.592;2023-07-16T11:50:11;9.80;;;4.25;;
35442;SDS011;21561;55.654;37.592;2023-07-16T11:52:39;9.25;;;4.15;;
35442;SDS011;21561;55.654;37.592;2023-07-16T11:55:07;8.52;;;3.95;;
35442;SDS011;21561;55.654;37.592;2023-07-16T11:57:35;9.55;;;4.15;;
35442;SDS011;21561;55.654;37.592;2023-07-16T12:00:02;15.70;;;4.57;;
35442;SDS011;21561;55.654;37.592;2023-07-16T12:02:34;14.40;;;4.28;;
35442;SDS011;21561;55.654;37.592;2023-07-16T12:05:01;10.85;;;4.43;;
35442;SDS011;21561;55.654;37.592;2023-07-16T12:10:02;9.95;;;4.25;;
35442;SDS011;21561;55.654;37.592;2023-07-16T12:12:34;10.00;;;4.40;;
35442;SDS011;21561;55.654;37.592;2023-07-16T12:15:08;12.70;;;3.92;;
35442;SDS011;21561;55.654;37.592;2023-07-16T12:17:35;8.25;;;3.67;;
35442;SDS011;21561;55.654;37.592;2023-07-16T12:20:03;8.75;;;3.80;;
35442;SDS011;21561;55.654;37.592;2023-07-16T12:22:32;10.73;;;3.78;;
35442;SDS011;21561;55.654;37.592;2023-07-16T12:24:59;8.75;;;3.50;;
35442;SDS011;21561;55.654;37.592;2023-07-16T12:27:28;9.25;;;4.00;;
35442;SDS011;21561;55.654;37.592;2023-07-16T12:29:56;12.25;;;4.47;;
35442;SDS011;21561;55.654;37.592;2023-07-16T12:32:23;8.70;;;4.00;;
35442;SDS011;21561;55.654;37.592;2023-07-16T12:34:49;10.35;;;4.05;;
35442;SDS011;21561;55.654;37.592;2023-07-16T12:37:17;10.55;;;4.20;;
35442;SDS011;21561;55.654;37.592;2023-07-16T12:39:44;9.10;;;4.30;;
35442;SDS011;21561;55.654;37.592;2023-07-16T12:42:11;10.25;;;4.18;;
35442;SDS011;21561;55.654;37.592;2023-07-16T12:44:38;12.27;;;4.82;;
35442;SDS011;21561;55.654;37.592;2023-07-16T12:47:05;11.32;;;4.60;;
35442;SDS011;21561;55.654;37.592;2023-07-16T12:49:35;13.53;;;4.27;;
35442;SDS011;21561;55.654;37.592;2023-07-16T12:52:02;13.45;;;4.38;;
35442;SDS011;21561;55.654;37.592;2023-07-16T12:54:30;10.32;;;4.32;;
35442;SDS011;21561;55.654;37.592;2023-07-16T12:56:57;12.20;;;4.25;;
35442;SDS011;21561;55.654;37.592;2023-07-16T12:59:23;10.40;;;4.45;;
35442;SDS011;21561;55.654;37.592;2023-07-16T13:01:53;10.38;;;3.70;;
35442;SDS011;21561;55.654;37.592;2023-07-16T13:04:20;9.93;;;3.97;;
35442;SDS011;21561;55.654;37.592;2023-07-16T13:06:47;8.98;;;3.72;;
35442;SDS011;21561;55.654;37.592;2023-07-16T13:09:14;12.07;;;4.35;;
35442;SDS011;21561;55.654;37.592;2023-07-16T13:11:42;10.45;;;4.40;;
35442;SDS011;21561;55.654;37.592;2023-07-16T13:14:09;11.20;;;4.00;;
35442;SDS011;21561;55.654;37.592;2023-07-16T13:16:36;8.43;;;4.22;;
35442;SDS011;21561;55.654;37.592;2023-07-16T13:19:03;10.20;;;4.35;;
35442;SDS011;21561;55.654;37.592;2023-07-16T13:21:30;11.55;;;4.22;;
35442;SDS011;21561;55.654;37.592;2023-07-16T13:23:57;9.35;;;4.10;;
35442;SDS011;21561;55.654;37.592;2023-07-16T13:26:24;10.20;;;4.32;;
35442;SDS011;21561;55.654;37.592;2023-07-16T13:28:51;12.30;;;4.72;;
35442;SDS011;21561;55.654;37.592;2023-07-16T13:31:19;10.20;;;4.38;;
35442;SDS011;21561;55.654;37.592;2023-07-16T13:33:46;12.88;;;4.38;;
35442;SDS011;21561;55.654;37.592;2023-07-16T13:36:13;10.27;;;4.00;;
35442;SDS011;21561;55.654;37.592;2023-07-16T13:38:40;10.63;;;4.18;;
35442;SDS011;21561;55.654;37.592;2023-07-16T13:41:07;8.80;;;3.78;;
35442;SDS011;21561;55.654;37.592;2023-07-16T13:43:33;9.52;;;4.20;;
35442;SDS011;21561;55.654;37.592;2023-07-16T13:46:00;11.57;;;3.95;;
35442;SDS011;21561;55.654;37.592;2023-07-16T13:48:27;9.55;;;4.00;;
35442;SDS011;21561;55.654;37.592;2023-07-16T13:51:02;12.15;;;4.55;;
35442;SDS011;21561;55.654;37.592;2023-07-16T13:53:29;9.05;;;3.92;;
35442;SDS011;21561;55.654;37.592;2023-07-16T13:55:56;8.10;;;3.75;;
35442;SDS011;21561;55.654;37.592;2023-07-16T13:58:24;9.77;;;3.70;;
35442;SDS011;21561;55.654;37.592;2023-07-16T14:00:51;10.00;;;3.50;;
35442;SDS011;21561;55.654;37.592;2023-07-16T14:03:18;8.23;;;3.60;;
35442;SDS011;21561;55.654;37.592;2023-07-16T14:05:45;9.07;;;3.90;;
35442;SDS011;21561;55.654;37.592;2023-07-16T14:08:12;15.77;;;4.10;;
35442;SDS011;21561;55.654;37.592;2023-07-16T14:10:38;12.80;;;3.83;;
35442;SDS011;21561;55.654;37.592;2023-07-16T14:13:05;10.18;;;3.78;;
35442;SDS011;21561;55.654;37.592;2023-07-16T14:15:32;10.68;;;4.00;;
35442;SDS011;21561;55.654;37.592;2023-07-16T14:17:59;13.98;;;3.95;;
35442;SDS011;21561;55.654;37.592;2023-07-16T14:20:26;11.73;;;4.07;;
35442;SDS011;21561;55.654;37.592;2023-07-16T14:22:53;10.45;;;3.95;;
35442;SDS011;21561;55.654;37.592;2023-07-16T14:25:20;7.65;;;3.35;;
35442;SDS011;21561;55.654;37.592;2023-07-16T14:27:47;7.82;;;3.58;;
35442;SDS011;21561;55.654;37.592;2023-07-16T14:30:14;11.48;;;3.75;;
35442;SDS011;21561;55.654;37.592;2023-07-16T14:32:42;10.15;;;3.80;;
35442;SDS011;21561;55.654;37.592;2023-07-16T14:35:09;10.32;;;3.58;;
35442;SDS011;21561;55.654;37.592;2023-07-16T14:37:58;8.40;;;3.35;;
35442;SDS011;21561;55.654;37.592;2023-07-16T14:40:25;7.30;;;3.20;;